Аэропорт: Уйташ. Махачкала

ICAO: URML

METAR:
2020-10-19 15:30:00
URML 191530Z 16004MPS 5000 BR SCT004 16/14 Q1014 R14/01//70 TEMPO 2000 BR BKN003 RMK QBB120 MT OBSC QFE760/1014
METAR:
2020-10-19 14:38:00
TAF AMD URML 191438Z 1915/1924 16003G08MPS 6000 SCT005 TEMPO 1915/1919 2000 BR BKN003 BECMG 1919/1922 30005G12MPS TEMPO 1922/1924 31010G18MPS